createdAt,value
2022-12-22T00:01:50.016Z,0.66
2022-12-22T00:04:39.041Z,0.68
2022-12-22T00:07:27.835Z,0.71
2022-12-22T00:10:16.258Z,0.76
2022-12-22T00:13:04.945Z,0.80
2022-12-22T00:15:55.251Z,0.83
2022-12-22T00:18:45.608Z,0.86
2022-12-22T00:21:34.485Z,0.88
2022-12-22T00:24:22.864Z,0.91
2022-12-22T00:27:11.407Z,0.94
2022-12-22T00:30:02.266Z,0.96
2022-12-22T00:32:55.463Z,0.96
2022-12-22T00:35:45.756Z,0.97
2022-12-22T00:38:37.847Z,0.99
2022-12-22T00:41:27.082Z,1.00
2022-12-22T00:44:15.664Z,0.99
2022-12-22T00:47:06.275Z,0.98
2022-12-22T00:49:56.522Z,0.98
2022-12-22T00:52:45.464Z,0.95
2022-12-22T00:55:37.704Z,0.92
2022-12-22T00:58:32.953Z,0.87
2022-12-22T01:01:21.515Z,0.82
2022-12-22T01:04:11.349Z,0.79
2022-12-22T01:07:00.131Z,0.77
2022-12-22T01:09:48.888Z,0.75
2022-12-22T01:12:41.236Z,0.73
2022-12-22T01:15:33.009Z,0.72
2022-12-22T01:18:21.695Z,0.74
2022-12-22T01:21:11.354Z,0.76
2022-12-22T01:24:01.403Z,0.80
2022-12-22T01:26:50.298Z,0.83
2022-12-22T01:29:39.146Z,0.89
2022-12-22T01:32:32.939Z,0.92
2022-12-22T01:35:21.393Z,0.94
2022-12-22T01:38:10.372Z,0.98
2022-12-22T01:40:59.238Z,0.98
2022-12-22T01:43:49.608Z,0.98
2022-12-22T01:46:46.535Z,0.98
2022-12-22T01:49:37.579Z,0.99
2022-12-22T01:52:28.311Z,0.98
2022-12-22T01:55:21.721Z,0.99
2022-12-22T01:58:10.958Z,0.99
2022-12-22T02:01:00.808Z,1.02
2022-12-22T02:03:49.801Z,1.05
2022-12-22T02:06:46.768Z,1.07
2022-12-22T02:09:52.194Z,1.08
2022-12-22T02:12:52.018Z,1.08
2022-12-22T02:15:49.428Z,1.08
2022-12-22T02:18:44.375Z,1.07
2022-12-22T02:21:36.902Z,1.05
2022-12-22T02:24:41.650Z,1.02
2022-12-22T02:27:31.167Z,0.98
2022-12-22T02:30:23.497Z,0.97
2022-12-22T02:33:12.537Z,0.97
2022-12-22T02:36:07.796Z,0.99
2022-12-22T02:39:05.519Z,1.00
2022-12-22T02:42:03.661Z,1.02
2022-12-22T02:45:04.278Z,1.01
2022-12-22T02:48:01.165Z,0.97
2022-12-22T02:50:54.278Z,0.96
2022-12-22T02:53:45.675Z,0.98
2022-12-22T02:56:34.439Z,1.01
2022-12-22T02:59:22.905Z,1.04
2022-12-22T03:02:11.505Z,1.05
2022-12-22T03:05:00.574Z,1.06
2022-12-22T03:07:49.088Z,1.06
2022-12-22T03:10:37.945Z,1.05
2022-12-22T03:13:26.597Z,1.03
2022-12-22T03:16:14.824Z,1.03
2022-12-22T03:19:03.208Z,1.02
2022-12-22T03:21:51.951Z,1.02
2022-12-22T03:24:40.434Z,1.02
2022-12-22T03:27:11.492Z,1.03
2022-12-22T03:29:42.485Z,1.03
2022-12-22T03:32:13.511Z,1.04
2022-12-22T03:34:44.641Z,1.06
2022-12-22T03:37:15.484Z,1.06
2022-12-22T03:39:46.513Z,1.07
2022-12-22T03:42:35.202Z,1.05
2022-12-22T03:45:25.183Z,1.02
2022-12-22T03:47:56.115Z,0.97
2022-12-22T03:50:27.152Z,0.96
2022-12-22T03:52:58.083Z,0.95
2022-12-22T03:55:29.417Z,0.94
2022-12-22T03:58:00.218Z,0.94
2022-12-22T04:00:31.457Z,0.95
2022-12-22T04:03:03.133Z,0.95
2022-12-22T04:05:34.348Z,0.97
2022-12-22T04:08:05.643Z,0.98
2022-12-22T04:10:54.400Z,1.01
2022-12-22T04:13:25.506Z,1.02
2022-12-22T04:15:56.757Z,1.03
2022-12-22T04:18:27.993Z,1.04
2022-12-22T04:20:59.579Z,1.05
2022-12-22T04:23:29.343Z,1.06
2022-12-22T04:26:00.818Z,1.04
2022-12-22T04:28:32.010Z,1.02
2022-12-22T04:31:02.929Z,1.01
2022-12-22T04:33:33.963Z,0.98
2022-12-22T04:36:05.075Z,0.98
2022-12-22T04:38:34.550Z,1.01
2022-12-22T04:41:05.634Z,1.02
2022-12-22T04:43:36.703Z,1.05
2022-12-22T04:46:08.398Z,1.07
2022-12-22T04:48:39.779Z,1.08
2022-12-22T04:51:10.946Z,1.07
2022-12-22T04:53:42.039Z,1.09
2022-12-22T04:56:13.050Z,1.11
2022-12-22T04:58:44.061Z,1.12
2022-12-22T05:01:17.626Z,1.14
2022-12-22T05:03:48.923Z,1.16
2022-12-22T05:06:20.056Z,1.17
2022-12-22T05:08:51.077Z,1.18
2022-12-22T05:11:22.228Z,1.18
2022-12-22T05:13:53.256Z,1.17
2022-12-22T05:16:24.563Z,1.15
2022-12-22T05:18:55.392Z,1.14
2022-12-22T05:21:26.396Z,1.14
2022-12-22T05:23:58.505Z,1.14
2022-12-22T05:26:29.592Z,1.14
2022-12-22T05:29:00.614Z,1.09
2022-12-22T05:31:31.893Z,1.03
2022-12-22T05:34:02.940Z,0.98
2022-12-22T05:36:34.187Z,0.96
2022-12-22T05:39:05.297Z,0.98
2022-12-22T05:41:36.264Z,1.01
2022-12-22T05:44:07.856Z,1.03
2022-12-22T05:46:39.164Z,1.06
2022-12-22T05:49:10.374Z,1.08
2022-12-22T05:51:41.386Z,1.12
2022-12-22T05:54:13.541Z,1.15
2022-12-22T05:56:44.674Z,1.16
2022-12-22T05:59:14.434Z,1.18
2022-12-22T06:01:45.709Z,1.19
2022-12-22T06:04:16.914Z,1.20
2022-12-22T06:06:46.588Z,1.22
2022-12-22T06:09:17.871Z,1.21
2022-12-22T06:11:48.838Z,1.23
2022-12-22T06:14:19.686Z,1.23
2022-12-22T06:16:50.673Z,1.22
2022-12-22T06:19:21.719Z,1.23
2022-12-22T06:21:52.821Z,1.23
2022-12-22T06:24:23.726Z,1.22
2022-12-22T06:26:54.812Z,1.22
2022-12-22T06:29:26.162Z,1.20
2022-12-22T06:31:57.564Z,1.19
2022-12-22T06:34:28.610Z,1.18
2022-12-22T06:36:58.331Z,1.19
2022-12-22T06:39:29.388Z,1.18
2022-12-22T06:42:18.322Z,1.18
2022-12-22T06:44:50.744Z,1.19
2022-12-22T06:47:21.734Z,1.19
2022-12-22T06:49:52.734Z,1.18
2022-12-22T06:52:23.834Z,1.17
2022-12-22T06:54:54.810Z,1.16
2022-12-22T06:57:25.650Z,1.17
2022-12-22T06:59:57.889Z,1.18
2022-12-22T07:02:29.598Z,1.17
2022-12-22T07:05:01.439Z,1.17
2022-12-22T07:07:32.598Z,1.17
2022-12-22T07:10:03.682Z,1.19
2022-12-22T07:12:34.686Z,1.19
2022-12-22T07:15:06.641Z,1.19
2022-12-22T07:17:38.214Z,1.16
2022-12-22T07:20:08.555Z,1.09
2022-12-22T07:22:39.619Z,1.05
2022-12-22T07:25:11.851Z,1.05
2022-12-22T07:27:44.299Z,1.06
2022-12-22T07:30:16.546Z,1.07
2022-12-22T07:32:47.609Z,1.10
2022-12-22T07:35:18.817Z,1.12
2022-12-22T07:37:50.611Z,1.13
2022-12-22T07:40:21.557Z,1.13
2022-12-22T07:42:56.743Z,1.16
2022-12-22T07:45:28.794Z,1.18
2022-12-22T07:48:23.888Z,1.20
2022-12-22T07:51:04.574Z,1.22
2022-12-22T07:53:36.104Z,1.24
2022-12-22T07:56:08.855Z,1.24
2022-12-22T07:58:40.068Z,1.25
2022-12-22T08:01:11.131Z,1.25
2022-12-22T08:03:42.278Z,1.26
2022-12-22T08:06:13.445Z,1.27
2022-12-22T08:08:42.979Z,1.29
2022-12-22T08:11:14.593Z,1.28
2022-12-22T08:13:44.372Z,1.30
2022-12-22T08:16:16.804Z,1.30
2022-12-22T08:18:48.144Z,1.33
2022-12-22T08:21:19.231Z,1.35
2022-12-22T08:23:50.358Z,1.37
2022-12-22T08:26:23.263Z,1.35
2022-12-22T08:28:59.450Z,1.34
2022-12-22T08:31:31.763Z,1.36
2022-12-22T08:34:07.327Z,1.38
2022-12-22T08:36:43.054Z,1.40
2022-12-22T08:39:15.084Z,1.41
2022-12-22T08:41:52.830Z,1.43
2022-12-22T08:44:23.568Z,1.43
2022-12-22T08:46:56.024Z,1.41
2022-12-22T08:49:28.142Z,1.43
2022-12-22T08:51:59.848Z,1.45
2022-12-22T08:54:31.432Z,1.47
2022-12-22T08:57:02.436Z,1.47
2022-12-22T08:59:33.707Z,1.49
2022-12-22T09:02:05.777Z,1.50
2022-12-22T09:04:37.821Z,1.50
2022-12-22T09:07:08.898Z,1.49
2022-12-22T09:09:40.159Z,1.48
2022-12-22T09:12:11.361Z,1.47
2022-12-22T09:14:42.273Z,1.46
2022-12-22T09:17:13.368Z,1.46
2022-12-22T09:19:44.365Z,1.45
2022-12-22T09:22:15.519Z,1.42
2022-12-22T09:24:46.577Z,1.38
2022-12-22T09:27:17.805Z,1.35
2022-12-22T09:29:48.946Z,1.32
2022-12-22T09:32:20.339Z,1.31
2022-12-22T09:34:50.007Z,1.33
2022-12-22T09:37:21.038Z,1.34
2022-12-22T09:39:51.021Z,1.36
2022-12-22T09:42:24.107Z,1.37
2022-12-22T09:44:55.173Z,1.40
2022-12-22T09:47:37.520Z,1.44
2022-12-22T09:50:17.101Z,1.45
2022-12-22T09:52:52.525Z,1.48
2022-12-22T09:55:39.003Z,1.50
2022-12-22T09:58:25.964Z,1.51
2022-12-22T10:01:07.626Z,1.52
2022-12-22T10:03:46.719Z,1.51
2022-12-22T10:06:29.553Z,1.51
2022-12-22T10:09:45.771Z,1.52
2022-12-22T10:12:07.334Z,1.53
2022-12-22T10:14:42.900Z,1.52
2022-12-22T10:17:23.946Z,1.52
2022-12-22T10:20:07.640Z,1.54
2022-12-22T10:22:48.321Z,1.56
2022-12-22T10:25:51.943Z,1.56
2022-12-22T10:28:26.436Z,1.55
2022-12-22T10:31:13.291Z,1.56
2022-12-22T10:33:47.791Z,1.55
2022-12-22T10:36:24.135Z,1.53
2022-12-22T10:39:02.687Z,1.50
2022-12-22T10:41:37.505Z,1.49
2022-12-22T10:44:11.670Z,1.52
2022-12-22T10:46:45.322Z,1.53
2022-12-22T10:49:20.680Z,1.54
2022-12-22T10:51:55.065Z,1.56
2022-12-22T10:54:37.209Z,1.61
2022-12-22T10:57:27.356Z,1.64
2022-12-22T10:59:59.911Z,1.66
2022-12-22T11:02:35.221Z,1.69
2022-12-22T11:05:09.091Z,1.74
2022-12-22T11:07:42.131Z,1.77
2022-12-22T11:10:25.011Z,1.80
2022-12-22T11:13:16.919Z,1.84
2022-12-22T11:16:00.262Z,1.85
2022-12-22T11:18:51.886Z,1.83
2022-12-22T11:21:29.897Z,1.82
2022-12-22T11:24:10.002Z,1.83
2022-12-22T11:26:51.706Z,1.85
2022-12-22T11:29:41.454Z,1.87
2022-12-22T11:32:27.736Z,1.87
2022-12-22T11:35:06.565Z,1.88
2022-12-22T11:37:49.711Z,1.89
2022-12-22T11:40:33.211Z,1.91
2022-12-22T11:43:25.648Z,1.92
2022-12-22T11:46:13.272Z,1.94
2022-12-22T11:49:01.008Z,1.94
2022-12-22T11:51:48.607Z,1.93
2022-12-22T11:54:44.267Z,1.94
2022-12-22T11:57:25.832Z,1.93
2022-12-22T12:00:04.037Z,1.92
2022-12-22T12:03:08.598Z,1.92
2022-12-22T12:06:00.408Z,1.91
2022-12-22T12:08:41.072Z,1.87
2022-12-22T12:11:24.606Z,1.84
2022-12-22T12:14:09.277Z,1.83
2022-12-22T12:16:47.360Z,1.82
2022-12-22T12:19:51.656Z,1.83
2022-12-22T12:22:37.695Z,1.84
2022-12-22T12:25:26.255Z,1.85
2022-12-22T12:28:17.407Z,1.87
2022-12-22T12:30:56.038Z,1.88
2022-12-22T12:33:36.388Z,1.90
2022-12-22T12:36:16.285Z,1.89
2022-12-22T12:39:10.341Z,1.89
2022-12-22T12:41:49.560Z,1.90
2022-12-22T12:44:24.301Z,1.92
2022-12-22T12:47:28.644Z,1.94
2022-12-22T12:50:07.289Z,1.95
2022-12-22T12:53:16.340Z,1.95
2022-12-22T12:55:59.443Z,1.91
2022-12-22T12:58:50.740Z,1.89
2022-12-22T13:01:56.115Z,1.90
2022-12-22T13:05:12.654Z,1.91
2022-12-22T13:08:08.285Z,1.90
2022-12-22T13:10:42.234Z,1.91
2022-12-22T13:13:47.172Z,1.91
2022-12-22T13:16:41.173Z,1.90
2022-12-22T13:19:26.524Z,1.88
2022-12-22T13:21:59.288Z,1.87
2022-12-22T13:24:49.189Z,1.88
2022-12-22T13:27:20.761Z,1.88
2022-12-22T13:29:50.399Z,1.87
2022-12-22T13:32:27.312Z,1.80
2022-12-22T13:35:31.120Z,1.73
2022-12-22T13:37:57.698Z,1.69
2022-12-22T13:40:31.153Z,1.69
2022-12-22T13:43:06.588Z,1.70
2022-12-22T13:45:41.238Z,1.70
2022-12-22T13:48:21.801Z,1.69
2022-12-22T13:50:56.660Z,1.67
2022-12-22T13:56:27.220Z,1.67
2022-12-22T13:59:01.878Z,1.70
2022-12-22T14:01:33.251Z,1.72
2022-12-22T14:04:08.016Z,1.75
2022-12-22T14:06:42.097Z,1.78
2022-12-22T14:09:22.306Z,1.81
2022-12-22T14:11:57.157Z,1.83
2022-12-22T14:14:32.481Z,1.86
2022-12-22T14:17:04.147Z,1.86
2022-12-22T14:19:38.575Z,1.83
2022-12-22T14:22:12.728Z,1.80
2022-12-22T14:24:49.417Z,1.78
2022-12-22T14:27:31.730Z,1.78
2022-12-22T14:30:06.288Z,1.76
2022-12-22T14:32:52.413Z,1.76
2022-12-22T14:35:31.183Z,1.77
2022-12-22T14:38:21.603Z,1.77
2022-12-22T14:40:57.348Z,1.77
2022-12-22T14:43:32.019Z,1.75
2022-12-22T14:46:08.934Z,1.72
2022-12-22T14:48:46.688Z,1.71
2022-12-22T14:51:20.949Z,1.71
2022-12-22T14:53:55.614Z,1.71
2022-12-22T14:56:28.409Z,1.68
2022-12-22T14:59:13.555Z,1.65
2022-12-22T15:02:00.160Z,1.62
2022-12-22T15:04:32.019Z,1.62
2022-12-22T15:08:02.629Z,1.63
2022-12-22T15:10:15.730Z,1.67
2022-12-22T15:12:48.709Z,1.70
2022-12-22T15:15:22.255Z,1.72
2022-12-22T15:17:54.752Z,1.72
2022-12-22T15:20:31.163Z,1.74
2022-12-22T15:23:09.626Z,1.76
2022-12-22T15:25:40.610Z,1.75
2022-12-22T15:28:11.686Z,1.75
2022-12-22T15:30:43.415Z,1.76
2022-12-22T15:33:17.519Z,1.77
2022-12-22T15:35:48.833Z,1.78
2022-12-22T15:38:19.070Z,1.80
2022-12-22T15:40:50.784Z,1.79
2022-12-22T15:43:55.831Z,1.78
2022-12-22T15:46:18.943Z,1.76
2022-12-22T15:48:50.467Z,1.74
2022-12-22T15:51:25.846Z,1.75
2022-12-22T15:53:58.324Z,1.74
2022-12-22T15:56:33.709Z,1.73
2022-12-22T15:59:04.931Z,1.70
2022-12-22T16:01:36.260Z,1.68
2022-12-22T16:04:10.736Z,1.67
2022-12-22T16:06:41.990Z,1.68
2022-12-22T16:09:21.863Z,1.69
2022-12-22T16:11:52.844Z,1.70
2022-12-22T16:14:25.338Z,1.70
2022-12-22T16:16:56.545Z,1.71
2022-12-22T16:19:27.671Z,1.71
2022-12-22T16:21:59.772Z,1.71
2022-12-22T16:24:36.082Z,1.71
2022-12-22T16:27:07.884Z,1.71
2022-12-22T16:29:39.489Z,1.72
2022-12-22T16:32:23.975Z,1.72
2022-12-22T16:34:55.182Z,1.70
2022-12-22T16:37:24.640Z,1.68
2022-12-22T16:39:55.461Z,1.66
2022-12-22T16:45:22.609Z,1.65
2022-12-22T16:47:56.648Z,1.65
2022-12-22T16:50:33.053Z,1.66
2022-12-22T16:53:06.644Z,1.67
2022-12-22T16:55:37.856Z,1.66
2022-12-22T16:58:13.663Z,1.65
2022-12-22T17:00:46.748Z,1.64
2022-12-22T17:03:23.311Z,1.62
2022-12-22T17:05:58.833Z,1.61
2022-12-22T17:08:33.684Z,1.60
2022-12-22T17:11:11.032Z,1.61
2022-12-22T17:13:42.624Z,1.61
2022-12-22T17:16:21.917Z,1.62
2022-12-22T17:18:53.349Z,1.62
2022-12-22T17:21:25.329Z,1.62
2022-12-22T17:24:03.791Z,1.61
2022-12-22T17:26:35.712Z,1.58
2022-12-22T17:29:07.197Z,1.58
2022-12-22T17:31:38.365Z,1.58
2022-12-22T17:34:18.862Z,1.59
2022-12-22T17:36:51.032Z,1.59
2022-12-22T17:39:25.680Z,1.59
2022-12-22T17:41:57.718Z,1.58
2022-12-22T17:44:29.035Z,1.57
2022-12-22T17:46:58.689Z,1.57
2022-12-22T17:49:30.390Z,1.56
2022-12-22T17:52:02.181Z,1.55
2022-12-22T17:54:33.268Z,1.55
2022-12-22T17:57:05.769Z,1.54
2022-12-22T17:59:36.839Z,1.55
2022-12-22T18:02:07.939Z,1.56
2022-12-22T18:04:38.882Z,1.55
2022-12-22T18:07:10.013Z,1.55
2022-12-22T18:09:41.378Z,1.55
2022-12-22T18:12:18.965Z,1.55
2022-12-22T18:14:50.987Z,1.55
2022-12-22T18:17:31.620Z,1.56
2022-12-22T18:20:07.569Z,1.54
2022-12-22T18:22:38.546Z,1.54
2022-12-22T18:25:18.606Z,1.53
2022-12-22T18:27:50.010Z,1.52
2022-12-22T18:30:24.717Z,1.50
2022-12-22T18:32:57.566Z,1.48
2022-12-22T18:35:30.377Z,1.49
2022-12-22T18:38:02.158Z,1.51
2022-12-22T18:40:35.523Z,1.53
2022-12-22T18:43:07.726Z,1.54
2022-12-22T18:45:38.866Z,1.56
2022-12-22T18:48:10.156Z,1.56
2022-12-22T18:50:42.565Z,1.55
2022-12-22T18:53:24.306Z,1.55
2022-12-22T18:55:55.546Z,1.56
2022-12-22T18:58:27.062Z,1.56
2022-12-22T19:00:58.646Z,1.56
2022-12-22T19:03:31.281Z,1.56
2022-12-22T19:06:02.261Z,1.57
2022-12-22T19:08:33.482Z,1.58
2022-12-22T19:11:08.074Z,1.59
2022-12-22T19:13:43.413Z,1.60
2022-12-22T19:16:17.288Z,1.59
2022-12-22T19:18:48.426Z,1.60
2022-12-22T19:21:20.703Z,1.61
2022-12-22T19:23:52.008Z,1.63
2022-12-22T19:26:26.533Z,1.65
2022-12-22T19:29:01.296Z,1.67
2022-12-22T19:31:35.328Z,1.68
2022-12-22T19:34:11.926Z,1.69
2022-12-22T19:36:42.916Z,1.68
2022-12-22T19:39:13.928Z,1.65
2022-12-22T19:41:48.529Z,1.61
2022-12-22T19:44:23.226Z,1.53
2022-12-22T19:46:55.496Z,1.49
2022-12-22T19:49:29.071Z,1.47
2022-12-22T19:52:00.897Z,1.48
2022-12-22T19:54:32.580Z,1.49
2022-12-22T19:57:04.343Z,1.50
2022-12-22T19:59:39.537Z,1.50
2022-12-22T20:02:26.520Z,1.49
2022-12-22T20:04:58.312Z,1.46
2022-12-22T20:07:32.963Z,1.46
2022-12-22T20:10:03.969Z,1.47
2022-12-22T20:12:37.755Z,1.48
2022-12-22T20:15:18.722Z,1.50
2022-12-22T20:17:50.899Z,1.54
2022-12-22T20:20:23.923Z,1.56
2022-12-22T20:22:58.146Z,1.57
2022-12-22T20:25:33.978Z,1.57
2022-12-22T20:28:07.138Z,1.52
2022-12-22T20:30:38.124Z,1.52
2022-12-22T20:33:12.148Z,1.51
2022-12-22T20:35:44.817Z,1.49
2022-12-22T20:38:18.849Z,1.46
2022-12-22T20:40:51.275Z,1.46
2022-12-22T20:43:29.647Z,1.48
2022-12-22T20:46:04.877Z,1.48
2022-12-22T20:48:37.828Z,1.46
2022-12-22T20:51:13.550Z,1.45
2022-12-22T20:53:45.710Z,1.45
2022-12-22T20:56:22.809Z,1.45
2022-12-22T20:58:54.000Z,1.45
2022-12-22T21:01:25.557Z,1.46
2022-12-22T21:03:56.670Z,1.47
2022-12-22T21:06:30.199Z,1.48
2022-12-22T21:09:02.642Z,1.50
2022-12-22T21:11:36.106Z,1.53
2022-12-22T21:14:07.321Z,1.53
2022-12-22T21:16:39.093Z,1.53
2022-12-22T21:19:16.793Z,1.53
2022-12-22T21:21:46.453Z,1.52
2022-12-22T21:24:18.692Z,1.50
2022-12-22T21:26:52.466Z,1.48
2022-12-22T21:29:26.248Z,1.48
2022-12-22T21:31:57.378Z,1.51
2022-12-22T21:34:28.452Z,1.52
2022-12-22T21:37:04.416Z,1.54
2022-12-22T21:39:41.871Z,1.55
2022-12-22T21:42:17.303Z,1.55
2022-12-22T21:44:48.342Z,1.56
2022-12-22T21:47:21.212Z,1.56
2022-12-22T21:49:52.489Z,1.57
2022-12-22T21:52:23.687Z,1.60
2022-12-22T21:54:54.977Z,1.60
2022-12-22T21:57:28.709Z,1.60
2022-12-22T21:59:59.844Z,1.57
2022-12-22T22:02:31.134Z,1.56
2022-12-22T22:05:00.898Z,1.53
2022-12-22T22:07:32.024Z,1.50
2022-12-22T22:10:03.143Z,1.48
2022-12-22T22:12:37.245Z,1.48
2022-12-22T22:15:11.318Z,1.46
2022-12-22T22:17:42.957Z,1.46
2022-12-22T22:20:17.980Z,1.46
2022-12-22T22:22:51.256Z,1.46
2022-12-22T22:25:23.188Z,1.47
2022-12-22T22:27:54.492Z,1.49
2022-12-22T22:30:26.967Z,1.51
2022-12-22T22:32:58.441Z,1.49
2022-12-22T22:35:29.968Z,1.44
2022-12-22T22:38:01.428Z,1.43
2022-12-22T22:40:32.604Z,1.43
2022-12-22T22:43:03.849Z,1.42
2022-12-22T22:45:34.841Z,1.37
2022-12-22T22:48:10.841Z,1.32
2022-12-22T22:50:44.182Z,1.32
2022-12-22T22:53:15.311Z,1.36
2022-12-22T22:55:46.411Z,1.39
2022-12-22T22:58:18.388Z,1.43
2022-12-22T23:00:49.432Z,1.46
2022-12-22T23:03:20.507Z,1.47
2022-12-22T23:05:52.092Z,1.48
2022-12-22T23:08:23.142Z,1.48
2022-12-22T23:10:54.254Z,1.50
2022-12-22T23:13:23.939Z,1.53
2022-12-22T23:16:00.115Z,1.53
2022-12-22T23:18:31.996Z,1.55
2022-12-22T23:21:05.517Z,1.56
2022-12-22T23:23:37.081Z,1.58
2022-12-22T23:26:08.882Z,1.59
2022-12-22T23:28:40.547Z,1.60
2022-12-22T23:31:14.068Z,1.61
2022-12-22T23:33:45.020Z,1.61
2022-12-22T23:36:16.237Z,1.61
2022-12-22T23:38:45.904Z,1.61
2022-12-22T23:41:17.327Z,1.59
2022-12-22T23:43:48.322Z,1.60
2022-12-22T23:46:20.132Z,1.60
2022-12-22T23:48:54.646Z,1.60
2022-12-22T23:51:28.067Z,1.58
2022-12-22T23:54:01.471Z,1.54
2022-12-22T23:56:33.860Z,1.49
2022-12-22T23:59:05.051Z,1.45
